Terminal Aerodrome Forecast
Issued by NWS Omaha/Valley, NE

Home | Current Version | Previous Version | Text Only | Print | Product List | Glossary On
Versions: 1 2 3 4 5 6 7 8 9 10 11 12 13 14 15 16 17 18 19 20 21 22 23 24 25 26 27 28 29 30 31 32 33 34 35 36 37 38 39
000
FTUS43 KOAX 311347 AAA
TAFOMA
TAF AMD
KOMA 311347Z 3114/0112 15009KT P6SM OVC012
      TEMPO 3114/3117 6SM -RA BR OVC025
     FM311700 15010KT 5SM -RA BR OVC010
     FM312100 14009KT 3SM -RASN BR OVC008
     FM010100 09009KT 2SM -SN BR OVC007
     FM010800 01014G22KT 1SM -SN OVC005=

USA.gov is the U.S. government's official web portal to all federal, state and local government web resources and services.